sensor_id;sensor_type;location;lat;lon;timestamp;temperature;humidity
3492;DHT22;1760;52.480;13.422;2023-02-28T00:01:08;4.10;99.90
3492;DHT22;1760;52.480;13.422;2023-02-28T00:03:35;4.10;99.90
3492;DHT22;1760;52.480;13.422;2023-02-28T00:06:02;4.10;99.90
3492;DHT22;1760;52.480;13.422;2023-02-28T00:08:29;4.10;99.90
3492;DHT22;1760;52.480;13.422;2023-02-28T00:11:01;4.10;99.90
3492;DHT22;1760;52.480;13.422;2023-02-28T00:13:29;5.00;99.90
3492;DHT22;1760;52.480;13.422;2023-02-28T00:16:00;4.10;99.90
3492;DHT22;1760;52.480;13.422;2023-02-28T00:18:27;4.00;99.90
3492;DHT22;1760;52.480;13.422;2023-02-28T00:20:56;4.00;99.90
3492;DHT22;1760;52.480;13.422;2023-02-28T00:23:23;3.90;99.90
3492;DHT22;1760;52.480;13.422;2023-02-28T00:25:50;4.00;99.90
3492;DHT22;1760;52.480;13.422;2023-02-28T00:28:20;3.90;99.90
3492;DHT22;1760;52.480;13.422;2023-02-28T00:30:48;3.90;99.90
3492;DHT22;1760;52.480;13.422;2023-02-28T00:33:17;3.90;99.90
3492;DHT22;1760;52.480;13.422;2023-02-28T00:35:44;3.90;99.90
3492;DHT22;1760;52.480;13.422;2023-02-28T00:38:12;3.90;99.90
3492;DHT22;1760;52.480;13.422;2023-02-28T00:40:39;3.90;99.90
3492;DHT22;1760;52.480;13.422;2023-02-28T00:43:07;3.90;99.90
3492;DHT22;1760;52.480;13.422;2023-02-28T00:45:36;3.80;99.90
3492;DHT22;1760;52.480;13.422;2023-02-28T00:48:05;3.80;99.90
3492;DHT22;1760;52.480;13.422;2023-02-28T00:50:32;3.70;99.90
3492;DHT22;1760;52.480;13.422;2023-02-28T00:52:58;3.70;99.90
3492;DHT22;1760;52.480;13.422;2023-02-28T00:55:25;3.70;99.90
3492;DHT22;1760;52.480;13.422;2023-02-28T00:57:52;3.70;99.90
3492;DHT22;1760;52.480;13.422;2023-02-28T01:00:19;3.70;99.90
3492;DHT22;1760;52.480;13.422;2023-02-28T01:02:46;3.70;99.90
3492;DHT22;1760;52.480;13.422;2023-02-28T01:05:15;3.70;99.90
3492;DHT22;1760;52.480;13.422;2023-02-28T01:07:41;3.70;99.90
3492;DHT22;1760;52.480;13.422;2023-02-28T01:10:10;3.70;99.90
3492;DHT22;1760;52.480;13.422;2023-02-28T01:12:37;3.70;99.90
3492;DHT22;1760;52.480;13.422;2023-02-28T01:15:05;3.70;99.90
3492;DHT22;1760;52.480;13.422;2023-02-28T01:17:32;3.60;99.90
3492;DHT22;1760;52.480;13.422;2023-02-28T01:19:59;3.60;99.90
3492;DHT22;1760;52.480;13.422;2023-02-28T01:22:27;3.60;99.90
3492;DHT22;1760;52.480;13.422;2023-02-28T01:24:54;3.50;99.90
3492;DHT22;1760;52.480;13.422;2023-02-28T01:27:21;3.50;99.90
3492;DHT22;1760;52.480;13.422;2023-02-28T01:29:48;3.50;99.90
3492;DHT22;1760;52.480;13.422;2023-02-28T01:32:14;3.50;99.90
3492;DHT22;1760;52.480;13.422;2023-02-28T01:34:41;3.40;99.90
3492;DHT22;1760;52.480;13.422;2023-02-28T01:37:08;3.40;99.90
3492;DHT22;1760;52.480;13.422;2023-02-28T01:39:36;3.40;99.90
3492;DHT22;1760;52.480;13.422;2023-02-28T01:42:03;3.40;99.90
3492;DHT22;1760;52.480;13.422;2023-02-28T01:45:00;3.30;99.90
3492;DHT22;1760;52.480;13.422;2023-02-28T01:47:30;3.30;99.90
3492;DHT22;1760;52.480;13.422;2023-02-28T01:49:58;3.30;99.90
3492;DHT22;1760;52.480;13.422;2023-02-28T01:52:28;3.20;99.90
3492;DHT22;1760;52.480;13.422;2023-02-28T01:54:59;3.20;99.90
3492;DHT22;1760;52.480;13.422;2023-02-28T01:57:30;3.20;99.90
3492;DHT22;1760;52.480;13.422;2023-02-28T02:00:05;3.10;99.90
3492;DHT22;1760;52.480;13.422;2023-02-28T02:02:35;3.10;99.90
3492;DHT22;1760;52.480;13.422;2023-02-28T02:05:06;3.00;99.90
3492;DHT22;1760;52.480;13.422;2023-02-28T02:07:35;3.00;99.90
3492;DHT22;1760;52.480;13.422;2023-02-28T02:10:09;3.00;99.90
3492;DHT22;1760;52.480;13.422;2023-02-28T02:15:53;3.00;99.90
3492;DHT22;1760;52.480;13.422;2023-02-28T02:18:28;2.90;99.90
3492;DHT22;1760;52.480;13.422;2023-02-28T02:24:11;2.90;99.90
3492;DHT22;1760;52.480;13.422;2023-02-28T02:27:06;2.80;99.90
3492;DHT22;1760;52.480;13.422;2023-02-28T02:32:48;2.70;99.90
3492;DHT22;1760;52.480;13.422;2023-02-28T02:35:25;2.70;99.90
3492;DHT22;1760;52.480;13.422;2023-02-28T02:37:59;2.60;99.90
3492;DHT22;1760;52.480;13.422;2023-02-28T02:40:35;2.60;99.90
3492;DHT22;1760;52.480;13.422;2023-02-28T02:43:08;2.60;99.90
3492;DHT22;1760;52.480;13.422;2023-02-28T02:45:42;2.60;99.90
3492;DHT22;1760;52.480;13.422;2023-02-28T02:48:14;2.60;99.90
3492;DHT22;1760;52.480;13.422;2023-02-28T02:50:45;2.60;99.90
3492;DHT22;1760;52.480;13.422;2023-02-28T02:53:17;2.60;99.90
3492;DHT22;1760;52.480;13.422;2023-02-28T02:55:47;2.60;99.90
3492;DHT22;1760;52.480;13.422;2023-02-28T02:58:21;2.50;99.90
3492;DHT22;1760;52.480;13.422;2023-02-28T03:00:52;2.50;99.90
3492;DHT22;1760;52.480;13.422;2023-02-28T03:03:20;2.50;99.90
3492;DHT22;1760;52.480;13.422;2023-02-28T03:05:56;2.50;99.90
3492;DHT22;1760;52.480;13.422;2023-02-28T03:08:25;2.50;99.90
3492;DHT22;1760;52.480;13.422;2023-02-28T03:10:56;2.50;99.90
3492;DHT22;1760;52.480;13.422;2023-02-28T03:13:44;2.50;99.90
3492;DHT22;1760;52.480;13.422;2023-02-28T03:16:27;2.60;99.90
3492;DHT22;1760;52.480;13.422;2023-02-28T03:19:03;2.60;99.90
3492;DHT22;1760;52.480;13.422;2023-02-28T03:21:38;2.60;99.90
3492;DHT22;1760;52.480;13.422;2023-02-28T03:24:09;2.60;99.90
3492;DHT22;1760;52.480;13.422;2023-02-28T03:26:41;2.60;99.90
3492;DHT22;1760;52.480;13.422;2023-02-28T03:29:15;2.60;99.90
3492;DHT22;1760;52.480;13.422;2023-02-28T03:31:49;2.60;99.90
3492;DHT22;1760;52.480;13.422;2023-02-28T03:34:24;2.60;99.90
3492;DHT22;1760;52.480;13.422;2023-02-28T03:37:00;2.60;99.90
3492;DHT22;1760;52.480;13.422;2023-02-28T03:39:35;2.60;99.90
3492;DHT22;1760;52.480;13.422;2023-02-28T03:42:08;2.60;99.90
3492;DHT22;1760;52.480;13.422;2023-02-28T03:44:39;2.60;99.90
3492;DHT22;1760;52.480;13.422;2023-02-28T03:47:11;2.60;99.90
3492;DHT22;1760;52.480;13.422;2023-02-28T03:49:46;2.60;99.90
3492;DHT22;1760;52.480;13.422;2023-02-28T03:52:17;2.60;99.90
3492;DHT22;1760;52.480;13.422;2023-02-28T03:54:50;2.50;99.90
3492;DHT22;1760;52.480;13.422;2023-02-28T03:57:27;2.50;99.90
3492;DHT22;1760;52.480;13.422;2023-02-28T04:00:00;2.50;99.90
3492;DHT22;1760;52.480;13.422;2023-02-28T04:02:29;2.50;99.90
3492;DHT22;1760;52.480;13.422;2023-02-28T04:04:56;2.40;99.90
3492;DHT22;1760;52.480;13.422;2023-02-28T04:07:31;2.40;99.90
3492;DHT22;1760;52.480;13.422;2023-02-28T04:09:58;2.30;99.90
3492;DHT22;1760;52.480;13.422;2023-02-28T04:12:26;2.30;99.90
3492;DHT22;1760;52.480;13.422;2023-02-28T04:14:53;2.30;99.90
3492;DHT22;1760;52.480;13.422;2023-02-28T04:17:20;2.30;99.90
3492;DHT22;1760;52.480;13.422;2023-02-28T04:19:47;2.30;99.90
3492;DHT22;1760;52.480;13.422;2023-02-28T04:22:14;2.20;99.90
3492;DHT22;1760;52.480;13.422;2023-02-28T04:24:44;2.20;99.90
3492;DHT22;1760;52.480;13.422;2023-02-28T04:27:13;2.10;99.90
3492;DHT22;1760;52.480;13.422;2023-02-28T04:29:41;2.10;99.90
3492;DHT22;1760;52.480;13.422;2023-02-28T04:32:10;2.20;99.90
3492;DHT22;1760;52.480;13.422;2023-02-28T04:34:37;2.10;99.90
3492;DHT22;1760;52.480;13.422;2023-02-28T04:37:06;2.10;99.90
3492;DHT22;1760;52.480;13.422;2023-02-28T04:39:35;2.00;99.90
3492;DHT22;1760;52.480;13.422;2023-02-28T04:42:08;2.00;99.90
3492;DHT22;1760;52.480;13.422;2023-02-28T04:44:35;1.60;99.90
3492;DHT22;1760;52.480;13.422;2023-02-28T04:47:04;0.60;99.90
3492;DHT22;1760;52.480;13.422;2023-02-28T04:49:31;2.00;99.90
3492;DHT22;1760;52.480;13.422;2023-02-28T04:51:58;2.40;99.90
3492;DHT22;1760;52.480;13.422;2023-02-28T04:54:25;2.00;99.90
3492;DHT22;1760;52.480;13.422;2023-02-28T04:56:53;2.00;99.90
3492;DHT22;1760;52.480;13.422;2023-02-28T04:59:22;2.00;99.90
3492;DHT22;1760;52.480;13.422;2023-02-28T05:01:49;2.00;99.90
3492;DHT22;1760;52.480;13.422;2023-02-28T05:04:16;2.00;99.90
3492;DHT22;1760;52.480;13.422;2023-02-28T05:06:43;2.00;99.90
3492;DHT22;1760;52.480;13.422;2023-02-28T05:09:10;2.00;99.90
3492;DHT22;1760;52.480;13.422;2023-02-28T05:11:40;2.00;99.90
3492;DHT22;1760;52.480;13.422;2023-02-28T05:14:11;1.90;99.90
3492;DHT22;1760;52.480;13.422;2023-02-28T05:16:40;1.90;99.90
3492;DHT22;1760;52.480;13.422;2023-02-28T05:19:07;1.90;99.90
3492;DHT22;1760;52.480;13.422;2023-02-28T05:21:35;1.90;99.90
3492;DHT22;1760;52.480;13.422;2023-02-28T05:24:05;1.80;99.90
3492;DHT22;1760;52.480;13.422;2023-02-28T05:26:34;1.80;99.90
3492;DHT22;1760;52.480;13.422;2023-02-28T05:29:01;1.80;99.90
3492;DHT22;1760;52.480;13.422;2023-02-28T05:31:28;1.80;99.90
3492;DHT22;1760;52.480;13.422;2023-02-28T05:33:59;1.70;99.90
3492;DHT22;1760;52.480;13.422;2023-02-28T05:36:26;1.70;99.90
3492;DHT22;1760;52.480;13.422;2023-02-28T05:38:53;1.70;99.90
3492;DHT22;1760;52.480;13.422;2023-02-28T05:41:20;1.70;99.90
3492;DHT22;1760;52.480;13.422;2023-02-28T05:43:48;1.70;99.90
3492;DHT22;1760;52.480;13.422;2023-02-28T05:46:15;1.70;99.90
3492;DHT22;1760;52.480;13.422;2023-02-28T05:48:45;1.60;99.90
3492;DHT22;1760;52.480;13.422;2023-02-28T05:51:13;1.70;99.90
3492;DHT22;1760;52.480;13.422;2023-02-28T05:53:42;1.70;99.90
3492;DHT22;1760;52.480;13.422;2023-02-28T05:56:09;1.70;99.90
3492;DHT22;1760;52.480;13.422;2023-02-28T05:58:38;1.70;99.90
3492;DHT22;1760;52.480;13.422;2023-02-28T06:01:21;1.70;99.90
3492;DHT22;1760;52.480;13.422;2023-02-28T06:03:48;1.70;99.90
3492;DHT22;1760;52.480;13.422;2023-02-28T06:06:16;1.70;99.90
3492;DHT22;1760;52.480;13.422;2023-02-28T06:08:46;1.70;99.90
3492;DHT22;1760;52.480;13.422;2023-02-28T06:11:13;1.70;99.90
3492;DHT22;1760;52.480;13.422;2023-02-28T06:13:40;1.70;99.90
3492;DHT22;1760;52.480;13.422;2023-02-28T06:16:10;1.70;99.90
3492;DHT22;1760;52.480;13.422;2023-02-28T06:18:38;1.70;99.90
3492;DHT22;1760;52.480;13.422;2023-02-28T06:21:05;1.80;99.90
3492;DHT22;1760;52.480;13.422;2023-02-28T06:23:44;1.80;99.90
3492;DHT22;1760;52.480;13.422;2023-02-28T06:26:11;1.80;99.90
3492;DHT22;1760;52.480;13.422;2023-02-28T06:28:37;1.90;99.90
3492;DHT22;1760;52.480;13.422;2023-02-28T06:31:09;1.90;99.90
3492;DHT22;1760;52.480;13.422;2023-02-28T06:33:36;1.90;99.90
3492;DHT22;1760;52.480;13.422;2023-02-28T06:36:07;1.90;99.90
3492;DHT22;1760;52.480;13.422;2023-02-28T06:38:34;1.90;99.90
3492;DHT22;1760;52.480;13.422;2023-02-28T06:41:04;1.90;99.90
3492;DHT22;1760;52.480;13.422;2023-02-28T06:43:33;2.00;99.90
3492;DHT22;1760;52.480;13.422;2023-02-28T06:46:03;1.90;99.90
3492;DHT22;1760;52.480;13.422;2023-02-28T06:48:30;1.90;99.90
3492;DHT22;1760;52.480;13.422;2023-02-28T06:51:05;2.00;99.90
3492;DHT22;1760;52.480;13.422;2023-02-28T06:53:36;2.00;99.90
3492;DHT22;1760;52.480;13.422;2023-02-28T06:56:06;1.60;99.90
3492;DHT22;1760;52.480;13.422;2023-02-28T06:58:33;2.10;99.90
3492;DHT22;1760;52.480;13.422;2023-02-28T07:01:01;2.10;99.90
3492;DHT22;1760;52.480;13.422;2023-02-28T07:03:28;2.10;99.90
3492;DHT22;1760;52.480;13.422;2023-02-28T07:05:57;2.20;99.90
3492;DHT22;1760;52.480;13.422;2023-02-28T07:08:27;2.20;99.90
3492;DHT22;1760;52.480;13.422;2023-02-28T07:10:54;2.30;99.90
3492;DHT22;1760;52.480;13.422;2023-02-28T07:13:26;2.30;99.90
3492;DHT22;1760;52.480;13.422;2023-02-28T07:15:54;2.30;99.90
3492;DHT22;1760;52.480;13.422;2023-02-28T07:18:21;2.40;99.90
3492;DHT22;1760;52.480;13.422;2023-02-28T07:20:48;2.40;99.90
3492;DHT22;1760;52.480;13.422;2023-02-28T07:23:15;2.50;99.90
3492;DHT22;1760;52.480;13.422;2023-02-28T07:25:42;2.60;99.90
3492;DHT22;1760;52.480;13.422;2023-02-28T07:28:12;2.60;99.90
3492;DHT22;1760;52.480;13.422;2023-02-28T07:30:41;2.60;99.90
3492;DHT22;1760;52.480;13.422;2023-02-28T07:33:09;2.60;99.90
3492;DHT22;1760;52.480;13.422;2023-02-28T07:35:36;2.70;99.90
3492;DHT22;1760;52.480;13.422;2023-02-28T07:38:03;2.80;99.90
3492;DHT22;1760;52.480;13.422;2023-02-28T07:40:31;2.80;99.90
3492;DHT22;1760;52.480;13.422;2023-02-28T07:42:59;2.90;99.90
3492;DHT22;1760;52.480;13.422;2023-02-28T07:45:26;2.90;99.90
3492;DHT22;1760;52.480;13.422;2023-02-28T07:47:55;3.00;99.90
3492;DHT22;1760;52.480;13.422;2023-02-28T07:50:24;3.10;99.90
3492;DHT22;1760;52.480;13.422;2023-02-28T07:52:51;3.10;99.90
3492;DHT22;1760;52.480;13.422;2023-02-28T07:55:18;3.20;99.90
3492;DHT22;1760;52.480;13.422;2023-02-28T07:57:45;3.20;99.90
3492;DHT22;1760;52.480;13.422;2023-02-28T08:00:15;3.30;99.90
3492;DHT22;1760;52.480;13.422;2023-02-28T08:02:42;3.40;99.90
3492;DHT22;1760;52.480;13.422;2023-02-28T08:05:10;3.40;99.90
3492;DHT22;1760;52.480;13.422;2023-02-28T08:07:37;3.50;99.90
3492;DHT22;1760;52.480;13.422;2023-02-28T08:10:07;3.50;99.90
3492;DHT22;1760;52.480;13.422;2023-02-28T08:12:35;3.60;99.90
3492;DHT22;1760;52.480;13.422;2023-02-28T08:15:02;3.60;99.90
3492;DHT22;1760;52.480;13.422;2023-02-28T08:17:29;3.70;99.90
3492;DHT22;1760;52.480;13.422;2023-02-28T08:19:56;3.80;99.90
3492;DHT22;1760;52.480;13.422;2023-02-28T08:22:24;3.80;99.90
3492;DHT22;1760;52.480;13.422;2023-02-28T08:24:53;3.90;99.90
3492;DHT22;1760;52.480;13.422;2023-02-28T08:27:20;3.90;99.90
3492;DHT22;1760;52.480;13.422;2023-02-28T08:29:47;3.90;99.90
3492;DHT22;1760;52.480;13.422;2023-02-28T08:32:16;4.00;99.90
3492;DHT22;1760;52.480;13.422;2023-02-28T08:34:43;4.00;99.90
3492;DHT22;1760;52.480;13.422;2023-02-28T08:37:10;4.10;99.90
3492;DHT22;1760;52.480;13.422;2023-02-28T08:39:39;4.20;99.90
3492;DHT22;1760;52.480;13.422;2023-02-28T08:42:06;4.20;99.90
3492;DHT22;1760;52.480;13.422;2023-02-28T08:44:33;4.20;99.90
3492;DHT22;1760;52.480;13.422;2023-02-28T08:47:00;4.30;99.90
3492;DHT22;1760;52.480;13.422;2023-02-28T08:49:26;4.30;99.90
3492;DHT22;1760;52.480;13.422;2023-02-28T08:51:54;4.40;99.90
3492;DHT22;1760;52.480;13.422;2023-02-28T08:54:22;4.50;99.90
3492;DHT22;1760;52.480;13.422;2023-02-28T08:56:50;4.50;98.60
3492;DHT22;1760;52.480;13.422;2023-02-28T08:59:17;4.60;96.60
3492;DHT22;1760;52.480;13.422;2023-02-28T09:01:45;4.60;97.00
3492;DHT22;1760;52.480;13.422;2023-02-28T09:04:11;4.70;95.90
3492;DHT22;1760;52.480;13.422;2023-02-28T09:06:41;4.70;95.90
3492;DHT22;1760;52.480;13.422;2023-02-28T09:09:10;4.80;94.90
3492;DHT22;1760;52.480;13.422;2023-02-28T09:11:37;4.80;94.60
3492;DHT22;1760;52.480;13.422;2023-02-28T09:14:08;4.90;95.00
3492;DHT22;1760;52.480;13.422;2023-02-28T09:16:35;5.00;94.10
3492;DHT22;1760;52.480;13.422;2023-02-28T09:19:03;5.10;93.00
3492;DHT22;1760;52.480;13.422;2023-02-28T09:21:36;5.10;93.30
3492;DHT22;1760;52.480;13.422;2023-02-28T09:24:03;5.20;92.80
3492;DHT22;1760;52.480;13.422;2023-02-28T09:26:30;5.20;93.10
3492;DHT22;1760;52.480;13.422;2023-02-28T09:28:57;5.40;92.90
3492;DHT22;1760;52.480;13.422;2023-02-28T09:31:28;5.60;93.30
3492;DHT22;1760;52.480;13.422;2023-02-28T09:33:57;5.60;90.10
3492;DHT22;1760;52.480;13.422;2023-02-28T09:36:28;5.70;89.30
3492;DHT22;1760;52.480;13.422;2023-02-28T09:38:55;5.80;85.80
3492;DHT22;1760;52.480;13.422;2023-02-28T09:41:25;5.80;83.10
3492;DHT22;1760;52.480;13.422;2023-02-28T09:43:59;5.90;82.70
3492;DHT22;1760;52.480;13.422;2023-02-28T09:46:32;6.10;83.80
3492;DHT22;1760;52.480;13.422;2023-02-28T09:49:06;7.00;82.40
3492;DHT22;1760;52.480;13.422;2023-02-28T09:51:42;7.90;74.10
3492;DHT22;1760;52.480;13.422;2023-02-28T09:54:14;8.40;69.60
3492;DHT22;1760;52.480;13.422;2023-02-28T09:56:45;8.30;68.10
3492;DHT22;1760;52.480;13.422;2023-02-28T09:59:28;8.40;67.60
3492;DHT22;1760;52.480;13.422;2023-02-28T10:02:08;9.30;64.60
3492;DHT22;1760;52.480;13.422;2023-02-28T10:04:43;10.70;59.90
3492;DHT22;1760;52.480;13.422;2023-02-28T10:07:22;12.20;55.70
3492;DHT22;1760;52.480;13.422;2023-02-28T10:09:54;13.40;52.00
3492;DHT22;1760;52.480;13.422;2023-02-28T10:12:24;14.30;47.90
3492;DHT22;1760;52.480;13.422;2023-02-28T10:14:53;14.80;45.40
3492;DHT22;1760;52.480;13.422;2023-02-28T10:17:25;15.30;44.70
3492;DHT22;1760;52.480;13.422;2023-02-28T10:19:58;15.70;43.80
3492;DHT22;1760;52.480;13.422;2023-02-28T10:22:40;16.10;42.80
3492;DHT22;1760;52.480;13.422;2023-02-28T10:25:20;16.20;41.50
3492;DHT22;1760;52.480;13.422;2023-02-28T10:27:49;16.30;41.20
3492;DHT22;1760;52.480;13.422;2023-02-28T10:30:16;16.50;41.00
3492;DHT22;1760;52.480;13.422;2023-02-28T10:32:49;16.50;39.90
3492;DHT22;1760;52.480;13.422;2023-02-28T10:35:20;16.40;39.60
3492;DHT22;1760;52.480;13.422;2023-02-28T10:37:49;16.20;40.10
3492;DHT22;1760;52.480;13.422;2023-02-28T10:40:29;16.10;40.80
3492;DHT22;1760;52.480;13.422;2023-02-28T10:42:58;16.10;40.20
3492;DHT22;1760;52.480;13.422;2023-02-28T10:45:27;16.20;40.00
3492;DHT22;1760;52.480;13.422;2023-02-28T10:47:58;16.20;40.60
3492;DHT22;1760;52.480;13.422;2023-02-28T10:50:44;16.10;39.70
3492;DHT22;1760;52.480;13.422;2023-02-28T10:53:22;16.00;39.60
3492;DHT22;1760;52.480;13.422;2023-02-28T10:55:56;15.70;39.20
3492;DHT22;1760;52.480;13.422;2023-02-28T10:58:25;15.80;40.80
3492;DHT22;1760;52.480;13.422;2023-02-28T11:00:53;15.70;40.10
3492;DHT22;1760;52.480;13.422;2023-02-28T11:03:30;15.70;39.40
3492;DHT22;1760;52.480;13.422;2023-02-28T11:05:58;15.30;39.50
3492;DHT22;1760;52.480;13.422;2023-02-28T11:08:25;15.10;40.40
3492;DHT22;1760;52.480;13.422;2023-02-28T11:11:00;14.90;40.70
3492;DHT22;1760;52.480;13.422;2023-02-28T11:13:33;14.50;40.60
3492;DHT22;1760;52.480;13.422;2023-02-28T11:16:03;14.30;41.60
3492;DHT22;1760;52.480;13.422;2023-02-28T11:18:36;14.00;40.70
3492;DHT22;1760;52.480;13.422;2023-02-28T11:21:06;13.50;41.90
3492;DHT22;1760;52.480;13.422;2023-02-28T11:23:36;12.90;41.00
3492;DHT22;1760;52.480;13.422;2023-02-28T11:26:04;12.60;43.20
3492;DHT22;1760;52.480;13.422;2023-02-28T11:28:36;12.50;43.50
3492;DHT22;1760;52.480;13.422;2023-02-28T11:31:15;12.10;43.40
3492;DHT22;1760;52.480;13.422;2023-02-28T11:33:47;11.50;43.30
3492;DHT22;1760;52.480;13.422;2023-02-28T11:36:19;11.20;45.30
3492;DHT22;1760;52.480;13.422;2023-02-28T11:38:46;10.80;46.20
3492;DHT22;1760;52.480;13.422;2023-02-28T11:41:31;10.40;46.50
3492;DHT22;1760;52.480;13.422;2023-02-28T11:44:29;10.20;46.30
3492;DHT22;1760;52.480;13.422;2023-02-28T11:46:59;9.80;47.00
3492;DHT22;1760;52.480;13.422;2023-02-28T11:49:37;9.50;47.90
3492;DHT22;1760;52.480;13.422;2023-02-28T11:52:19;9.30;49.50
3492;DHT22;1760;52.480;13.422;2023-02-28T11:55:01;9.10;49.40
3492;DHT22;1760;52.480;13.422;2023-02-28T11:57:47;8.80;49.70
3492;DHT22;1760;52.480;13.422;2023-02-28T12:00:37;8.80;50.30
3492;DHT22;1760;52.480;13.422;2023-02-28T12:03:19;8.70;51.00
3492;DHT22;1760;52.480;13.422;2023-02-28T12:06:01;8.60;52.00
3492;DHT22;1760;52.480;13.422;2023-02-28T12:09:02;8.50;52.30
3492;DHT22;1760;52.480;13.422;2023-02-28T12:11:37;8.40;52.50
3492;DHT22;1760;52.480;13.422;2023-02-28T12:14:29;8.40;52.60
3492;DHT22;1760;52.480;13.422;2023-02-28T12:17:06;8.40;52.20
3492;DHT22;1760;52.480;13.422;2023-02-28T12:19:43;8.40;52.60
3492;DHT22;1760;52.480;13.422;2023-02-28T12:22:31;8.40;53.40
3492;DHT22;1760;52.480;13.422;2023-02-28T12:28:09;8.30;54.10
3492;DHT22;1760;52.480;13.422;2023-02-28T12:30:41;8.30;54.40
3492;DHT22;1760;52.480;13.422;2023-02-28T12:33:14;8.30;55.10
3492;DHT22;1760;52.480;13.422;2023-02-28T12:35:46;8.30;55.70
3492;DHT22;1760;52.480;13.422;2023-02-28T12:38:18;8.30;55.60
3492;DHT22;1760;52.480;13.422;2023-02-28T12:40:50;8.30;55.90
3492;DHT22;1760;52.480;13.422;2023-02-28T12:43:18;8.40;56.20
3492;DHT22;1760;52.480;13.422;2023-02-28T12:45:49;8.30;55.70
3492;DHT22;1760;52.480;13.422;2023-02-28T12:48:21;8.30;56.00
3492;DHT22;1760;52.480;13.422;2023-02-28T12:50:50;8.40;56.20
3492;DHT22;1760;52.480;13.422;2023-02-28T12:53:24;8.40;55.90
3492;DHT22;1760;52.480;13.422;2023-02-28T12:56:05;8.40;55.60
3492;DHT22;1760;52.480;13.422;2023-02-28T12:58:37;8.50;55.40
3492;DHT22;1760;52.480;13.422;2023-02-28T13:01:36;8.50;55.10
3492;DHT22;1760;52.480;13.422;2023-02-28T13:04:32;8.50;54.40
3492;DHT22;1760;52.480;13.422;2023-02-28T13:07:19;8.50;55.30
3492;DHT22;1760;52.480;13.422;2023-02-28T13:09:57;8.60;55.50
3492;DHT22;1760;52.480;13.422;2023-02-28T13:12:24;8.70;55.40
3492;DHT22;1760;52.480;13.422;2023-02-28T13:15:04;8.80;54.40
3492;DHT22;1760;52.480;13.422;2023-02-28T13:17:38;8.80;54.70
3492;DHT22;1760;52.480;13.422;2023-02-28T13:20:15;8.90;54.50
3492;DHT22;1760;52.480;13.422;2023-02-28T13:22:45;8.90;54.10
3492;DHT22;1760;52.480;13.422;2023-02-28T13:31:25;8.80;54.10
3492;DHT22;1760;52.480;13.422;2023-02-28T13:34:14;8.80;54.90
3492;DHT22;1760;52.480;13.422;2023-02-28T13:36:41;8.80;54.60
3492;DHT22;1760;52.480;13.422;2023-02-28T13:39:45;8.80;54.40
3492;DHT22;1760;52.480;13.422;2023-02-28T13:42:31;8.80;54.70
3492;DHT22;1760;52.480;13.422;2023-02-28T13:45:21;8.90;54.20
3492;DHT22;1760;52.480;13.422;2023-02-28T13:47:55;8.90;54.40
3492;DHT22;1760;52.480;13.422;2023-02-28T13:50:29;8.90;54.30
3492;DHT22;1760;52.480;13.422;2023-02-28T13:56:03;8.90;54.20
3492;DHT22;1760;52.480;13.422;2023-02-28T13:58:41;9.00;54.20
3492;DHT22;1760;52.480;13.422;2023-02-28T14:01:27;9.00;53.00
3492;DHT22;1760;52.480;13.422;2023-02-28T14:04:21;8.90;53.90
3492;DHT22;1760;52.480;13.422;2023-02-28T14:06:55;8.90;53.30
3492;DHT22;1760;52.480;13.422;2023-02-28T14:09:25;9.10;53.70
3492;DHT22;1760;52.480;13.422;2023-02-28T14:11:54;8.40;52.60
3492;DHT22;1760;52.480;13.422;2023-02-28T14:14:55;9.20;53.80
3492;DHT22;1760;52.480;13.422;2023-02-28T14:17:25;9.20;54.50
3492;DHT22;1760;52.480;13.422;2023-02-28T14:19:52;9.20;54.70
3492;DHT22;1760;52.480;13.422;2023-02-28T14:22:41;9.10;54.50
3492;DHT22;1760;52.480;13.422;2023-02-28T14:25:15;8.90;54.30
3492;DHT22;1760;52.480;13.422;2023-02-28T14:27:48;8.80;54.10
3492;DHT22;1760;52.480;13.422;2023-02-28T14:33:40;8.80;55.40
3492;DHT22;1760;52.480;13.422;2023-02-28T14:36:14;8.80;56.20
3492;DHT22;1760;52.480;13.422;2023-02-28T14:38:45;8.90;55.90
3492;DHT22;1760;52.480;13.422;2023-02-28T14:41:22;8.90;55.60
3492;DHT22;1760;52.480;13.422;2023-02-28T14:43:51;8.80;56.20
3492;DHT22;1760;52.480;13.422;2023-02-28T14:46:19;8.80;55.50
3492;DHT22;1760;52.480;13.422;2023-02-28T14:48:49;8.70;55.70
3492;DHT22;1760;52.480;13.422;2023-02-28T14:51:23;8.70;56.20
3492;DHT22;1760;52.480;13.422;2023-02-28T14:53:57;8.60;55.60
3492;DHT22;1760;52.480;13.422;2023-02-28T14:56:27;8.60;55.60
3492;DHT22;1760;52.480;13.422;2023-02-28T14:58:57;8.50;56.60
3492;DHT22;1760;52.480;13.422;2023-02-28T15:01:25;8.50;56.60
3492;DHT22;1760;52.480;13.422;2023-02-28T15:04:03;8.50;56.50
3492;DHT22;1760;52.480;13.422;2023-02-28T15:06:31;8.40;56.40
3492;DHT22;1760;52.480;13.422;2023-02-28T15:09:14;8.30;57.00
3492;DHT22;1760;52.480;13.422;2023-02-28T15:11:41;8.30;56.90
3492;DHT22;1760;52.480;13.422;2023-02-28T15:14:15;8.20;57.00
3492;DHT22;1760;52.480;13.422;2023-02-28T15:16:46;8.10;57.40
3492;DHT22;1760;52.480;13.422;2023-02-28T15:19:19;8.00;57.60
3492;DHT22;1760;52.480;13.422;2023-02-28T15:21:49;7.90;57.70
3492;DHT22;1760;52.480;13.422;2023-02-28T15:24:20;7.80;58.40
3492;DHT22;1760;52.480;13.422;2023-02-28T15:26:53;7.80;58.50
3492;DHT22;1760;52.480;13.422;2023-02-28T15:29:22;7.70;58.30
3492;DHT22;1760;52.480;13.422;2023-02-28T15:31:51;7.60;58.70
3492;DHT22;1760;52.480;13.422;2023-02-28T15:34:26;7.50;58.60
3492;DHT22;1760;52.480;13.422;2023-02-28T15:36:57;7.50;58.00
3492;DHT22;1760;52.480;13.422;2023-02-28T15:39:25;7.50;59.20
3492;DHT22;1760;52.480;13.422;2023-02-28T15:42:10;7.40;59.10
3492;DHT22;1760;52.480;13.422;2023-02-28T15:44:37;7.30;60.30
3492;DHT22;1760;52.480;13.422;2023-02-28T15:47:06;7.30;60.40
3492;DHT22;1760;52.480;13.422;2023-02-28T15:49:40;7.20;60.20
3492;DHT22;1760;52.480;13.422;2023-02-28T15:52:14;6.00;59.10
3492;DHT22;1760;52.480;13.422;2023-02-28T15:54:43;7.10;61.50
3492;DHT22;1760;52.480;13.422;2023-02-28T15:57:15;7.10;61.00
3492;DHT22;1760;52.480;13.422;2023-02-28T15:59:50;7.00;60.80
3492;DHT22;1760;52.480;13.422;2023-02-28T16:02:19;6.90;61.70
3492;DHT22;1760;52.480;13.422;2023-02-28T16:05:12;6.80;62.80
3492;DHT22;1760;52.480;13.422;2023-02-28T16:07:43;6.80;63.70
3492;DHT22;1760;52.480;13.422;2023-02-28T16:10:13;6.80;63.80
3492;DHT22;1760;52.480;13.422;2023-02-28T16:12:41;6.80;64.20
3492;DHT22;1760;52.480;13.422;2023-02-28T16:15:18;6.70;64.00
3492;DHT22;1760;52.480;13.422;2023-02-28T16:17:46;6.60;64.00
3492;DHT22;1760;52.480;13.422;2023-02-28T16:20:17;6.60;65.40
3492;DHT22;1760;52.480;13.422;2023-02-28T16:22:45;6.50;65.30
3492;DHT22;1760;52.480;13.422;2023-02-28T16:25:13;6.50;65.60
3492;DHT22;1760;52.480;13.422;2023-02-28T16:27:41;6.50;66.90
3492;DHT22;1760;52.480;13.422;2023-02-28T16:30:16;6.40;68.50
3492;DHT22;1760;52.480;13.422;2023-02-28T16:32:44;6.40;67.90
3492;DHT22;1760;52.480;13.422;2023-02-28T16:35:11;6.40;68.90
3492;DHT22;1760;52.480;13.422;2023-02-28T16:37:41;6.30;69.10
3492;DHT22;1760;52.480;13.422;2023-02-28T16:40:14;6.30;69.20
3492;DHT22;1760;52.480;13.422;2023-02-28T16:42:44;6.30;69.50
3492;DHT22;1760;52.480;13.422;2023-02-28T16:45:16;6.20;70.40
3492;DHT22;1760;52.480;13.422;2023-02-28T16:47:45;6.20;70.60
3492;DHT22;1760;52.480;13.422;2023-02-28T16:50:16;6.20;71.00
3492;DHT22;1760;52.480;13.422;2023-02-28T16:52:44;6.10;71.70